Repto Las Brisas, Puerto Rico
Current Conditions -  °F | °C
As of 7:50 PM on Monday 22 Dec 2014 (Local Time) from TJBQ Reporting Station
Clear Clear  
Wind Chill: 77°   Ceiling: Unl
Heat Index: 78°   Visibility: 10mi
Dew Point: 72°   Wind: 6mph
Humidity: 83%   Direction: 120°ESE
Pressure: 30.02"   Gusts: NA
Location:  18.4951°N, 67.0273°W
Report Text: TJBQ 222350Z 12005KT 10SM SKC 25/22 A3002 RMK RWY08 ATIS D
Loading
Personal Weather Stations






























Interactive Weather Map New forecast layout! Learn more

10-Day Weather Forecast

Advertisements
Track Severe Weather on mobile